Time;durP1;ratioP1;P1;durP2;ratioP2;P2;SDS_P1;SDS_P2;PMS_P1;PMS_P2;Temp;Humidity;BMP_temperature;BMP_pressure;BME280_temperature;BME280_humidity;BME280_pressure;Samples;Min_cycle;Max_cycle;Signal;HPM_P1;HPM_P2
2023/06/05 00:01:15;;;;;;;6.43;3.38;;;435.70;2355.20;;;;;;4929878;29;20024;-71
2023/06/05 00:03:43;;;;;;;6.93;3.97;;;435.70;2355.20;;;;;;4923473;29;20107;-72
2023/06/05 00:06:09;;;;;;;8.00;3.53;;;435.60;2355.20;;;;;;4928453;29;20124;-73
2023/06/05 00:08:35;;;;;;;5.95;3.80;;;435.50;2355.20;;;;;;4925428;29;20398;-72
2023/06/05 00:11:01;;;;;;;5.18;3.83;;;435.50;2355.20;;;;;;4930608;29;20031;-73
2023/06/05 00:13:26;;;;;;;5.95;3.78;;;435.30;2355.20;;;;;;4924615;29;20028;-75
2023/06/05 00:15:53;;;;;;;8.45;3.58;;;435.20;2355.20;;;;;;4928754;29;20057;-74
2023/06/05 00:18:19;;;;;;;8.77;3.63;;;435.20;2355.20;;;;;;4909551;29;20039;-73
2023/06/05 00:20:45;;;;;;;6.47;3.70;;;435.20;2355.20;;;;;;4933533;29;20056;-76
2023/06/05 00:23:11;;;;;;;6.60;3.80;;;435.30;2355.20;;;;;;4931497;29;20497;-72
2023/06/05 00:25:37;;;;;;;8.15;3.58;;;435.20;2355.20;;;;;;4922546;29;20058;-72
2023/06/05 00:28:03;;;;;;;8.35;4.38;;;410.50;2355.20;;;;;;4928024;29;20071;-73
2023/06/05 00:30:28;;;;;;;7.88;4.00;;;435.30;2355.20;;;;;;4918671;29;20075;-72
2023/06/05 00:32:55;;;;;;;4.90;3.40;;;410.50;2355.20;;;;;;4922527;29;20032;-75
2023/06/05 00:35:21;;;;;;;6.55;3.88;;;410.50;2355.20;;;;;;4930474;29;20502;-71
2023/06/05 00:37:47;;;;;;;8.32;3.65;;;410.50;2355.20;;;;;;4925441;29;20036;-71
2023/06/05 00:40:13;;;;;;;7.13;3.72;;;410.50;2355.20;;;;;;4920331;29;20031;-75
2023/06/05 00:42:39;;;;;;;5.50;3.25;;;410.50;2355.20;;;;;;4927785;29;20028;-72
2023/06/05 00:45:05;;;;;;;5.60;3.83;;;410.50;2355.20;;;;;;4921223;29;20076;-73
2023/06/05 00:47:32;;;;;;;7.20;4.30;;;410.50;2355.20;;;;;;4922998;29;20427;-74
2023/06/05 00:49:58;;;;;;;7.40;3.63;;;410.50;2355.20;;;;;;4926698;29;20024;-73
2023/06/05 00:52:26;;;;;;;10.27;3.90;;;410.50;2355.20;;;;;;4928853;29;20050;-74
2023/06/05 00:54:52;;;;;;;6.18;3.83;;;;;;;;;;4924127;29;20024;-75
2023/06/05 00:57:18;;;;;;;5.55;3.50;;;410.50;2355.20;;;;;;4934556;29;20028;-74
2023/06/05 00:59:44;;;;;;;8.20;3.80;;;435.30;2355.20;;;;;;4936370;29;20363;-78
2023/06/05 01:02:12;;;;;;;6.43;3.60;;;435.30;2355.20;;;;;;4936086;29;20039;-77
2023/06/05 01:04:43;;;;;;;6.20;3.67;;;435.50;2355.20;;;;;;4936417;29;20114;-75
2023/06/05 01:07:10;;;;;;;10.02;4.80;;;435.50;2355.20;;;;;;4936273;29;20036;-72
2023/06/05 01:09:37;;;;;;;5.93;4.03;;;435.60;2355.20;;;;;;4936199;29;20477;-73
2023/06/05 01:12:06;;;;;;;11.13;4.03;;;435.60;2355.20;;;;;;4936017;29;20043;-77
2023/06/05 01:14:34;;;;;;;6.38;3.80;;;435.60;2355.20;;;;;;4935818;29;20048;-76
2023/06/05 01:17:02;;;;;;;7.30;4.18;;;435.60;2355.20;;;;;;4936202;29;20030;-76
2023/06/05 01:19:31;;;;;;;8.27;3.85;;;435.50;2355.20;;;;;;4935769;29;20102;-78
2023/06/05 01:22:01;;;;;;;8.25;4.28;;;435.60;2355.20;;;;;;4924617;29;20020;-76
2023/06/05 01:24:30;;;;;;;5.85;3.95;;;435.50;2355.20;;;;;;4916160;29;20027;-77
2023/06/05 01:27:00;;;;;;;5.35;3.75;;;435.70;2355.20;;;;;;4918747;29;20036;-75
2023/06/05 01:30:03;;;;;;;6.03;3.70;;;435.80;2355.20;;;;;;4916269;29;20048;-75
2023/06/05 01:32:42;;;;;;;6.78;3.95;;;435.60;2355.20;;;;;;4914700;29;20059;-78
2023/06/05 01:35:10;;;;;;;6.60;4.18;;;435.50;2355.20;;;;;;4916189;29;20027;-73
2023/06/05 01:37:40;;;;;;;7.25;3.90;;;435.70;2355.20;;;;;;4916449;29;20189;-72
2023/06/05 01:40:20;;;;;;;6.55;4.13;;;435.80;2355.20;;;;;;4914803;29;20153;-79
2023/06/05 01:42:47;;;;;;;9.00;4.47;;;435.60;2355.20;;;;;;4916226;29;20127;-73
2023/06/05 01:45:16;;;;;;;7.03;3.83;;;435.80;2355.20;;;;;;4915859;29;20036;-72
2023/06/05 01:47:42;;;;;;;11.00;4.55;;;435.50;2355.20;;;;;;4921143;29;20040;-78
2023/06/05 01:50:09;;;;;;;7.38;3.80;;;435.60;2355.20;;;;;;4914499;29;20032;-71
2023/06/05 01:52:35;;;;;;;7.88;4.65;;;435.40;2355.20;;;;;;4915902;29;20028;-77
2023/06/05 01:55:02;;;;;;;8.90;4.03;;;435.30;2355.20;;;;;;4921609;29;20024;-79
2023/06/05 01:57:29;;;;;;;7.60;4.18;;;435.20;2355.20;;;;;;4925825;29;20509;-71
2023/06/05 01:59:55;;;;;;;7.68;4.63;;;435.20;2355.20;;;;;;4918677;29;20024;-72
2023/06/05 02:02:21;;;;;;;8.35;4.95;;;410.50;2355.20;;;;;;4929529;29;20058;-68
2023/06/05 02:04:50;;;;;;;8.02;4.53;;;435.20;2355.20;;;;;;4935435;29;20019;-73
2023/06/05 02:07:16;;;;;;;6.68;4.43;;;435.20;2355.20;;;;;;4932671;29;20036;-75
2023/06/05 02:09:42;;;;;;;8.38;4.22;;;410.40;2355.20;;;;;;4918287;29;20020;-75
2023/06/05 02:12:08;;;;;;;6.65;4.55;;;410.50;2355.20;;;;;;4914544;29;20122;-74
2023/06/05 02:14:37;;;;;;;8.68;4.72;;;410.50;2355.20;;;;;;4918798;29;20119;-74
2023/06/05 02:17:06;;;;;;;8.07;4.72;;;410.40;2355.20;;;;;;4919189;29;20039;-73
2023/06/05 02:19:33;;;;;;;7.55;4.78;;;410.40;2355.20;;;;;;4921004;29;20435;-73
2023/06/05 02:21:59;;;;;;;7.40;4.38;;;410.30;2355.20;;;;;;4925512;29;20020;-69
2023/06/05 02:24:27;;;;;;;8.77;4.82;;;410.40;2355.20;;;;;;4925567;29;20454;-73
2023/06/05 02:26:53;;;;;;;7.15;4.72;;;410.40;2355.20;;;;;;4938355;29;20090;-76
2023/06/05 02:29:19;;;;;;;7.43;4.25;;;410.50;2355.20;;;;;;4927875;29;20024;-72
2023/06/05 02:31:45;;;;;;;7.45;4.43;;;410.40;2355.20;;;;;;4919084;29;20474;-69
2023/06/05 02:34:11;;;;;;;7.80;4.03;;;410.30;2355.20;;;;;;4917650;29;20038;-75
2023/06/05 02:36:37;;;;;;;7.80;4.72;;;410.20;2355.20;;;;;;4924240;29;20115;-76
2023/06/05 02:39:04;;;;;;;11.15;5.20;;;410.20;2355.20;;;;;;4921583;29;20100;-71
2023/06/05 02:41:30;;;;;;;8.45;4.90;;;410.10;2355.20;;;;;;4919904;29;20031;-76
2023/06/05 02:43:56;;;;;;;8.52;5.05;;;410.10;2355.20;;;;;;4921090;29;20095;-77
2023/06/05 02:46:24;;;;;;;7.63;4.82;;;410.00;2355.20;;;;;;4924471;29;20074;-71
2023/06/05 02:48:50;;;;;;;10.27;4.72;;;410.00;2355.20;;;;;;4920193;29;20489;-73
2023/06/05 02:51:16;;;;;;;12.13;5.18;;;410.00;2355.20;;;;;;4925385;29;20145;-79
2023/06/05 02:53:42;;;;;;;9.90;5.53;;;410.00;2355.20;;;;;;4918846;29;20050;-76
2023/06/05 02:56:08;;;;;;;11.18;5.13;;;410.10;2355.20;;;;;;4918785;29;20379;-73
2023/06/05 02:58:34;;;;;;;15.30;5.25;;;410.10;2355.20;;;;;;4918689;29;20409;-78
2023/06/05 03:01:03;;;;;;;10.05;5.75;;;410.20;2355.20;;;;;;4909447;29;20039;-78
2023/06/05 03:03:30;;;;;;;12.35;5.10;;;410.20;2355.20;;;;;;4922736;29;20024;-79
2023/06/05 03:06:11;;;;;;;8.27;4.70;;;410.20;2355.20;;;;;;4923151;29;20036;-76
2023/06/05 03:08:38;;;;;;;12.88;5.75;;;;;;;;;;4929385;29;20479;-78
2023/06/05 03:11:04;;;;;;;10.93;5.47;;;410.30;2355.20;;;;;;4918656;29;20016;-72
2023/06/05 03:13:30;;;;;;;10.43;5.43;;;410.30;2355.20;;;;;;4927430;29;20489;-79
2023/06/05 03:15:57;;;;;;;10.07;5.68;;;410.30;2355.20;;;;;;4931881;29;20521;-78
2023/06/05 03:18:24;;;;;;;8.60;5.22;;;410.30;2355.20;;;;;;4934934;29;20107;-79
2023/06/05 03:20:54;;;;;;;10.73;5.55;;;410.20;2355.20;;;;;;4917827;29;20107;-79
2023/06/05 03:23:23;;;;;;;11.00;5.45;;;410.20;2355.20;;;;;;4917697;29;20045;-78
2023/06/05 03:25:49;;;;;;;11.07;5.30;;;410.30;2355.20;;;;;;4915905;29;20032;-78
2023/06/05 03:28:15;;;;;;;9.88;5.40;;;410.20;2355.20;;;;;;4922215;29;20078;-79
2023/06/05 03:30:41;;;;;;;9.18;5.95;;;410.20;2355.20;;;;;;4920441;29;20039;-77
2023/06/05 03:33:07;;;;;;;10.63;5.40;;;410.20;2355.20;;;;;;4901108;29;20115;-78
2023/06/05 03:35:33;;;;;;;7.88;5.97;;;410.30;2355.20;;;;;;4917696;29;20033;-72
2023/06/05 03:37:59;;;;;;;9.40;5.68;;;410.40;2355.20;;;;;;4917654;29;20032;-73
2023/06/05 03:40:24;;;;;;;10.93;5.57;;;410.50;2355.20;;;;;;4918225;29;20020;-78
2023/06/05 03:42:51;;;;;;;10.00;5.63;;;410.50;2355.20;;;;;;4917291;29;20024;-77
2023/06/05 03:45:16;;;;;;;11.48;6.25;;;410.50;2355.20;;;;;;4919708;29;20188;-76
2023/06/05 03:47:44;;;;;;;10.75;6.35;;;435.20;2355.20;;;;;;4917303;29;20040;-78
2023/06/05 03:50:11;;;;;;;9.95;5.30;;;435.20;2355.20;;;;;;4915867;29;20364;-76
2023/06/05 03:52:39;;;;;;;11.77;5.35;;;435.20;2355.20;;;;;;4917377;29;20032;-72
2023/06/05 03:55:09;;;;;;;9.32;5.72;;;435.30;2355.20;;;;;;4919575;29;20378;-73
2023/06/05 03:57:37;;;;;;;9.55;6.32;;;435.30;2355.20;;;;;;4916914;29;20039;-76
2023/06/05 04:00:05;;;;;;;9.10;5.72;;;435.50;2355.20;;;;;;4916837;29;20016;-79
2023/06/05 04:02:30;;;;;;;12.75;5.72;;;435.50;2355.20;;;;;;4919752;29;20471;-78
2023/06/05 04:04:56;;;;;;;7.88;5.93;;;435.50;2355.20;;;;;;4917177;29;20036;-79
2023/06/05 04:07:22;;;;;;;11.30;5.70;;;435.60;2355.20;;;;;;4916853;29;20036;-75
2023/06/05 04:09:48;;;;;;;12.95;6.28;;;435.70;2355.20;;;;;;4916859;29;20467;-77
2023/06/05 04:12:14;;;;;;;12.57;6.15;;;435.80;2355.20;;;;;;4916777;29;20032;-78
2023/06/05 04:14:40;;;;;;;11.32;7.53;;;435.80;2355.20;;;;;;4916507;29;20044;-79
2023/06/05 04:17:06;;;;;;;12.73;6.55;;;435.90;2355.20;;;;;;4919781;29;20115;-79
2023/06/05 04:19:31;;;;;;;15.85;6.53;;;435.80;2355.20;;;;;;4919045;29;20479;-77
2023/06/05 04:21:59;;;;;;;11.30;6.38;;;436.10;2355.20;;;;;;4919337;29;20028;-80
2023/06/05 04:24:25;;;;;;;14.02;6.80;;;460.80;2380.80;;;;;;4916546;29;20016;-74
2023/06/05 04:26:51;;;;;;;12.85;6.25;;;460.80;2380.80;;;;;;4915096;29;20043;-72
2023/06/05 04:29:18;;;;;;;9.68;6.22;;;460.90;2380.80;;;;;;4916489;29;20026;-76
2023/06/05 04:31:45;;;;;;;12.18;6.00;;;461.00;2380.80;;;;;;4916380;29;20735;-73
2023/06/05 04:34:12;;;;;;;9.65;6.10;;;461.00;2380.80;;;;;;4916775;29;20038;-76
2023/06/05 04:36:38;;;;;;;11.45;6.75;;;461.10;2380.80;;;;;;4921042;29;20034;-77
2023/06/05 04:39:06;;;;;;;10.85;6.70;;;461.10;2380.80;;;;;;4927251;29;20026;-79
2023/06/05 04:41:32;;;;;;;8.93;6.18;;;461.10;2380.80;;;;;;4917560;29;20111;-73
2023/06/05 04:43:59;;;;;;;7.78;5.47;;;461.20;2380.80;;;;;;4918958;29;20522;-76
2023/06/05 04:46:26;;;;;;;9.63;4.85;;;;;;;;;;4916175;29;20107;-73
2023/06/05 04:48:55;;;;;;;8.48;5.47;;;461.30;2380.80;;;;;;4935511;29;20448;-72
2023/06/05 04:51:22;;;;;;;8.82;5.38;;;461.30;2380.80;;;;;;4935475;29;20019;-80
2023/06/05 04:53:52;;;;;;;11.55;6.43;;;461.40;2380.80;;;;;;4926889;29;20016;-72
2023/06/05 04:56:20;;;;;;;8.95;5.70;;;461.50;2380.80;;;;;;4916001;29;20530;-80
2023/06/05 04:58:47;;;;;;;8.48;5.25;;;461.50;2380.80;;;;;;4915948;29;20039;-79
2023/06/05 05:01:13;;;;;;;8.68;5.68;;;461.60;2380.80;;;;;;4932207;29;20059;-80
2023/06/05 05:03:42;;;;;;;7.75;4.85;;;461.70;2380.80;;;;;;4916203;29;20422;-78
2023/06/05 05:06:08;;;;;;;16.83;7.25;;;461.70;2380.80;;;;;;4915855;29;20633;-75
2023/06/05 05:08:36;;;;;;;11.57;5.63;;;461.70;2380.80;;;;;;4922263;29;20031;-73
2023/06/05 05:11:02;;;;;;;9.23;5.03;;;461.70;2380.80;;;;;;4921830;29;20036;-77
2023/06/05 05:13:27;;;;;;;9.98;5.25;;;486.40;2380.80;;;;;;4926723;29;20444;-78
2023/06/05 05:15:54;;;;;;;9.77;5.55;;;486.40;2380.80;;;;;;4916978;29;20075;-71
2023/06/05 05:18:20;;;;;;;9.18;5.47;;;486.50;2380.80;;;;;;4923757;29;20020;-75
2023/06/05 05:20:46;;;;;;;6.97;4.53;;;486.50;2380.80;;;;;;4928399;29;20131;-77
2023/06/05 05:23:11;;;;;;;8.23;4.30;;;486.50;2380.80;;;;;;4926557;29;20032;-73
2023/06/05 05:25:40;;;;;;;7.07;4.85;;;486.70;2380.80;;;;;;4922198;29;20024;-78
2023/06/05 05:28:06;;;;;;;9.13;5.00;;;486.80;2380.80;;;;;;4927155;29;20036;-73
2023/06/05 05:30:33;;;;;;;6.07;4.10;;;486.80;2380.80;;;;;;4928494;29;20513;-74
2023/06/05 05:32:59;;;;;;;8.50;5.30;;;486.90;2380.80;;;;;;4925689;29;20431;-74
2023/06/05 05:35:24;;;;;;;9.15;4.65;;;486.90;2380.80;;;;;;4928835;29;20120;-72
2023/06/05 05:37:50;;;;;;;9.82;4.68;;;486.90;2380.80;;;;;;4925499;29;20047;-71
2023/06/05 05:40:16;;;;;;;9.00;5.05;;;;;;;;;;4928383;29;20031;-71
2023/06/05 05:42:42;;;;;;;8.75;5.00;;;487.30;2380.80;;;;;;4920561;29;20111;-78
2023/06/05 05:45:08;;;;;;;8.00;4.55;;;487.30;2380.80;;;;;;4922203;29;20079;-78
2023/06/05 05:47:34;;;;;;;9.68;4.38;;;487.30;2380.80;;;;;;4926842;29;20091;-72
2023/06/05 05:50:00;;;;;;;11.73;5.07;;;512.20;2380.80;;;;;;4923659;29;20423;-72
2023/06/05 05:52:25;;;;;;;9.32;4.65;;;512.20;2380.80;;;;;;4926746;29;20032;-73
2023/06/05 05:54:52;;;;;;;9.95;5.47;;;512.30;2380.80;;;;;;4925516;29;20021;-74
2023/06/05 05:57:18;;;;;;;8.43;4.50;;;512.40;2380.80;;;;;;4932126;29;20490;-73
2023/06/05 05:59:47;;;;;;;9.35;4.78;;;;;;;;;;4934062;29;20055;-73
2023/06/05 06:02:13;;;;;;;8.02;4.82;;;;;;;;;;4931486;29;20024;-77
2023/06/05 06:04:40;;;;;;;7.75;4.38;;;;;;;;;;4943695;29;20035;-79
2023/06/05 06:07:06;;;;;;;6.05;4.60;;;;;;;;;;4935897;29;20024;-74
2023/06/05 06:09:33;;;;;;;6.38;4.20;;;;;;;;;;4930373;29;20035;-72
2023/06/05 06:12:02;;;;;;;8.80;4.07;;;;;;;;;;4930664;29;20032;-76
2023/06/05 06:14:28;;;;;;;9.07;4.28;;;;;;;;;;4924237;29;20501;-79
2023/06/05 06:16:57;;;;;;;7.63;3.85;;;;;;;;;;4920610;29;20036;-72
2023/06/05 06:19:23;;;;;;;6.78;3.97;;;;;;;;;;4925680;29;20039;-74
2023/06/05 06:21:51;;;;;;;5.93;3.58;;;;;;;;;;4931026;29;20485;-72
2023/06/05 06:24:20;;;;;;;7.20;3.90;;;;;;;;;;4935801;29;20035;-72
2023/06/05 06:26:49;;;;;;;6.38;4.03;;;;;;;;;;4930965;29;20040;-79
2023/06/05 06:29:18;;;;;;;7.95;3.30;;;;;;;;;;4927384;29;20031;-80
2023/06/05 06:31:44;;;;;;;9.10;4.05;;;;;;;;;;4931036;29;20040;-77
2023/06/05 06:34:10;;;;;;;7.10;3.60;;;;;;;;;;4930310;29;20047;-78
2023/06/05 06:36:40;;;;;;;5.32;3.65;;;;;;;;;;4924815;29;20043;-75
2023/06/05 06:39:10;;;;;;;5.53;3.97;;;;;;;;;;4931548;29;20031;-76
2023/06/05 06:41:36;;;;;;;7.43;3.88;;;;;;;;;;4930063;29;20032;-78
2023/06/05 06:44:03;;;;;;;11.48;4.03;;;;;;;;;;4927605;29;20035;-77
2023/06/05 06:46:29;;;;;;;9.10;4.43;;;;;;;;;;4925147;29;20041;-72
2023/06/05 06:48:55;;;;;;;6.30;4.05;;;;;;;;;;4935648;29;20480;-73
2023/06/05 06:51:22;;;;;;;9.20;5.10;;;538.40;2406.40;;;;;;4939542;28;20028;-75
2023/06/05 06:53:48;;;;;;;8.85;4.10;;;538.30;2406.40;;;;;;4920089;29;20494;-77
2023/06/05 06:56:15;;;;;;;10.70;4.38;;;538.30;2406.40;;;;;;4926017;29;20030;-76
2023/06/05 06:58:42;;;;;;;8.10;4.50;;;538.20;2406.40;;;;;;4929624;29;20020;-72
2023/06/05 07:01:09;;;;;;;6.63;3.72;;;538.50;2406.40;;;;;;4932190;29;20103;-71
2023/06/05 07:03:35;;;;;;;9.93;4.47;;;563.30;2432.00;;;;;;4927888;29;20024;-72
2023/06/05 07:06:01;;;;;;;5.43;3.72;;;563.30;2432.00;;;;;;4929414;29;20546;-75
2023/06/05 07:08:27;;;;;;;10.13;4.40;;;563.30;2432.00;;;;;;4917258;29;20467;-75
2023/06/05 07:10:56;;;;;;;5.28;3.67;;;563.40;2432.00;;;;;;4927922;29;20119;-74
2023/06/05 07:13:22;;;;;;;9.32;3.90;;;563.40;2432.00;;;;;;4930620;29;20078;-72
2023/06/05 07:15:48;;;;;;;8.70;4.57;;;563.40;2432.00;;;;;;4926654;29;20090;-74
2023/06/05 07:18:15;;;;;;;13.65;3.92;;;;;;;;;;4930693;29;20470;-73
2023/06/05 07:20:40;;;;;;;7.05;4.72;;;563.60;2432.00;;;;;;4924865;29;20024;-72
2023/06/05 07:23:06;;;;;;;6.28;3.95;;;563.80;2432.00;;;;;;4927965;29;20028;-74
2023/06/05 07:25:32;;;;;;;8.30;4.55;;;563.70;2432.00;;;;;;4931207;29;20032;-73
2023/06/05 07:27:59;;;;;;;8.57;3.75;;;563.60;2432.00;;;;;;4926173;29;20094;-73
2023/06/05 07:30:26;;;;;;;8.18;4.00;;;563.70;2432.00;;;;;;4929019;29;20367;-73
2023/06/05 07:32:52;;;;;;;8.07;4.32;;;563.70;2432.00;;;;;;4920127;29;20410;-71
2023/06/05 07:35:18;;;;;;;5.55;4.25;;;563.70;2432.00;;;;;;4930522;29;20027;-74
2023/06/05 07:37:43;;;;;;;7.88;5.00;;;563.80;2432.00;;;;;;4930099;29;20501;-74
2023/06/05 07:40:10;;;;;;;8.02;3.53;;;;;;;;;;4930308;29;20038;-79
2023/06/05 07:42:36;;;;;;;6.45;4.65;;;;;;;;;;4925725;29;20510;-74
2023/06/05 07:45:02;;;;;;;6.82;4.35;;;;;;;;;;4928553;29;20039;-74
2023/06/05 07:47:28;;;;;;;6.57;4.05;;;;;;;;;;4934482;29;20443;-73
2023/06/05 07:50:01;;;;;;;11.55;5.10;;;;;;;;;;4927572;29;20490;-79
2023/06/05 07:52:30;;;;;;;10.23;5.75;;;;;;;;;;4932475;29;20052;-72
2023/06/05 07:54:57;;;;;;;7.82;4.85;;;;;;;;;;4930957;29;20049;-72
2023/06/05 07:57:27;;;;;;;8.60;4.90;;;;;;;;;;4931089;29;20031;-73
2023/06/05 07:59:54;;;;;;;6.78;5.22;;;;;;;;;;4915419;29;20032;-73
2023/06/05 08:02:21;;;;;;;7.28;5.40;;;;;;;;;;4928872;29;20024;-75
2023/06/05 08:04:47;;;;;;;6.25;4.85;;;;;;;;;;4950652;29;20028;-73
2023/06/05 08:07:13;;;;;;;14.05;5.65;;;;;;;;;;4931054;29;20054;-74
2023/06/05 08:09:39;;;;;;;7.63;5.45;;;;;;;;;;4928579;29;20038;-73
2023/06/05 08:12:06;;;;;;;9.05;5.93;;;;;;;;;;4928037;29;20035;-73
2023/06/05 08:14:32;;;;;;;9.80;5.18;;;;;;;;;;4926499;29;20510;-74
2023/06/05 08:16:58;;;;;;;8.57;5.13;;;;;;;;;;4930908;29;20028;-76
2023/06/05 08:19:24;;;;;;;7.40;5.28;;;;;;;;;;4922589;29;20545;-74
2023/06/05 08:21:52;;;;;;;9.48;5.25;;;;;;;;;;4926351;29;20083;-74
2023/06/05 08:24:18;;;;;;;6.28;4.25;;;;;;;;;;4926608;29;20016;-71
2023/06/05 08:26:43;;;;;;;6.60;4.80;;;588.90;2432.00;;;;;;4929651;29;20159;-73
2023/06/05 08:29:11;;;;;;;6.50;4.05;;;588.90;2432.00;;;;;;4932650;29;20118;-73
2023/06/05 08:31:37;;;;;;;9.40;4.30;;;588.90;2432.00;;;;;;4924190;29;20028;-74
2023/06/05 08:34:04;;;;;;;8.23;5.07;;;589.20;2432.00;;;;;;4930309;29;20364;-73
2023/06/05 08:36:32;;;;;;;6.68;4.63;;;589.30;2432.00;;;;;;4921160;29;20114;-73
2023/06/05 08:38:58;;;;;;;8.13;4.35;;;589.30;2432.00;;;;;;4923000;29;20529;-71
2023/06/05 08:41:25;;;;;;;6.90;4.82;;;589.40;2432.00;;;;;;4925147;29;20057;-75
2023/06/05 08:43:51;;;;;;;9.63;4.85;;;589.60;2432.00;;;;;;4924117;29;20020;-71
2023/06/05 08:46:17;;;;;;;8.20;4.85;;;589.70;2432.00;;;;;;4922779;29;20067;-71
2023/06/05 08:48:45;;;;;;;7.30;4.57;;;589.70;2432.00;;;;;;4926756;29;20066;-73
2023/06/05 08:51:13;;;;;;;7.53;4.70;;;614.50;2432.00;;;;;;4927350;29;20015;-76
2023/06/05 08:53:41;;;;;;;5.25;3.78;;;614.60;2432.00;;;;;;4931675;29;20024;-71
2023/06/05 08:56:08;;;;;;;7.32;4.65;;;614.60;2432.00;;;;;;4927936;29;20024;-72
2023/06/05 08:58:35;;;;;;;6.57;4.82;;;614.60;2432.00;;;;;;4927414;29;20032;-72
2023/06/05 09:01:01;;;;;;;6.45;4.35;;;614.50;2432.00;;;;;;4922486;29;20035;-73
2023/06/05 09:03:27;;;;;;;7.45;4.30;;;614.70;2432.00;;;;;;4928332;29;20032;-73
2023/06/05 09:05:53;;;;;;;8.13;4.20;;;614.90;2432.00;;;;;;4927724;29;20144;-72
2023/06/05 09:08:32;;;;;;;5.13;3.58;;;614.80;2432.00;;;;;;4925473;29;20035;-73
2023/06/05 09:11:23;;;;;;;5.55;3.38;;;614.80;2432.00;;;;;;4925936;29;20398;-73
2023/06/05 09:13:49;;;;;;;6.40;3.90;;;614.80;2432.00;;;;;;4933324;29;20027;-76
2023/06/05 09:16:19;;;;;;;7.32;3.90;;;614.80;2432.00;;;;;;4939680;29;20096;-70
2023/06/05 09:18:56;;;;;;;6.18;4.20;;;615.00;2432.00;;;;;;4927916;29;20075;-72
2023/06/05 09:21:28;;;;;;;8.52;4.32;;;614.90;2432.00;;;;;;4940499;29;20052;-72
2023/06/05 09:24:09;;;;;;;7.80;4.15;;;614.80;2432.00;;;;;;4929462;29;20430;-71
2023/06/05 09:27:06;;;;;;;5.90;3.80;;;614.90;2432.00;;;;;;4928897;29;20043;-72
2023/06/05 09:29:39;;;;;;;8.48;4.07;;;615.10;2432.00;;;;;;4876568;29;20560;-72
2023/06/05 09:32:07;;;;;;;6.97;4.28;;;;;;;;;;4860983;29;20033;-71
2023/06/05 09:34:38;;;;;;;8.05;3.60;;;615.30;2432.00;;;;;;4876628;29;20041;-73
2023/06/05 09:37:06;;;;;;;6.40;3.70;;;640.20;2432.00;;;;;;4868641;29;20024;-75
2023/06/05 09:39:33;;;;;;;6.63;4.13;;;;;;;;;;4876460;29;20407;-73
2023/06/05 09:42:00;;;;;;;5.03;3.47;;;640.50;2432.00;;;;;;4860913;29;20089;-72
2023/06/05 09:44:27;;;;;;;7.82;3.90;;;640.50;2432.00;;;;;;4876187;29;20036;-73
2023/06/05 09:46:59;;;;;;;11.75;4.53;;;640.40;2432.00;;;;;;4876317;29;20057;-72
2023/06/05 09:49:38;;;;;;;5.45;3.40;;;640.50;2432.00;;;;;;4876096;29;20029;-73
2023/06/05 09:52:04;;;;;;;7.75;4.38;;;640.50;2432.00;;;;;;4860610;29;20590;-74
2023/06/05 09:54:31;;;;;;;7.30;4.20;;;640.80;2432.00;;;;;;4876554;29;20025;-73
2023/06/05 09:57:02;;;;;;;6.30;3.92;;;640.80;2329.60;;;;;;4876769;29;20025;-74
2023/06/05 09:59:53;;;;;;;4.97;3.42;;;640.90;2432.00;;;;;;4876135;29;20037;-77
2023/06/05 10:02:20;;;;;;;5.72;3.53;;;;;;;;;;4876409;29;20021;-74
2023/06/05 10:04:49;;;;;;;7.55;4.47;;;665.90;2304.00;;;;;;4878259;29;20507;-74
2023/06/05 10:07:15;;;;;;;5.65;3.92;;;640.90;2304.00;;;;;;4932522;29;20028;-77
2023/06/05 10:09:41;;;;;;;6.47;3.60;;;640.90;2432.00;;;;;;4926466;29;20067;-73
2023/06/05 10:12:08;;;;;;;6.30;4.32;;;640.90;2355.20;;;;;;4929634;29;20031;-73
2023/06/05 10:14:40;;;;;;;9.30;4.05;;;640.80;2304.00;;;;;;4924945;29;20079;-74
2023/06/05 10:17:06;;;;;;;10.70;3.85;;;640.90;2432.00;;;;;;4927070;29;20074;-73
2023/06/05 10:19:32;;;;;;;7.22;3.53;;;665.70;2432.00;;;;;;4927244;29;20440;-71
2023/06/05 10:21:58;;;;;;;5.05;3.28;;;665.70;2406.40;;;;;;4922213;29;20028;-78
2023/06/05 10:24:38;;;;;;;7.60;3.90;;;665.80;2432.00;;;;;;4925333;29;20387;-73
2023/06/05 10:27:11;;;;;;;7.03;4.10;;;640.90;2355.20;;;;;;4913322;29;20444;-72
2023/06/05 10:29:58;;;;;;;7.78;3.80;;;640.70;2432.00;;;;;;4927688;29;20032;-75
2023/06/05 10:32:57;;;;;;;6.05;4.07;;;640.60;2432.00;;;;;;4927390;29;20028;-73
2023/06/05 10:35:38;;;;;;;5.88;3.95;;;640.50;2432.00;;;;;;4927321;29;20024;-72
2023/06/05 10:38:22;;;;;;;5.43;3.72;;;640.50;2432.00;;;;;;4932100;29;20351;-72
2023/06/05 10:40:55;;;;;;;9.05;4.80;;;640.70;2432.00;;;;;;4931598;29;20028;-73
2023/06/05 10:43:25;;;;;;;14.35;5.53;;;640.70;2432.00;;;;;;4931318;29;20051;-73
2023/06/05 10:45:51;;;;;;;10.57;4.13;;;640.70;2406.40;;;;;;4931909;29;20042;-72
2023/06/05 10:48:17;;;;;;;9.15;4.72;;;640.70;2380.80;;;;;;4927518;29;20059;-74
2023/06/05 10:50:43;;;;;;;10.20;4.57;;;640.70;2432.00;;;;;;4931082;29;20035;-77
2023/06/05 10:53:42;;;;;;;8.52;4.60;;;640.70;2432.00;;;;;;4929271;29;20051;-73
2023/06/05 10:56:08;;;;;;;11.80;4.70;;;640.80;2432.00;;;;;;4931233;29;20366;-71
2023/06/05 10:58:33;;;;;;;8.52;4.65;;;640.80;2432.00;;;;;;4924860;29;20154;-77
2023/06/05 11:01:21;;;;;;;7.70;5.38;;;640.60;2432.00;;;;;;4928094;29;20408;-73
2023/06/05 11:03:56;;;;;;;7.10;3.80;;;640.80;2432.00;;;;;;4928231;29;20063;-74
2023/06/05 11:06:22;;;;;;;6.68;4.22;;;640.90;2432.00;;;;;;4933775;29;20031;-71
2023/06/05 11:09:27;;;;;;;6.95;4.30;;;640.90;2432.00;;;;;;4932693;29;20549;-71
2023/06/05 11:12:01;;;;;;;8.25;4.13;;;640.80;2432.00;;;;;;4886290;29;20081;-73
2023/06/05 11:14:47;;;;;;;7.53;4.53;;;640.90;2432.00;;;;;;4886572;29;20049;-71
2023/06/05 11:17:37;;;;;;;10.77;4.63;;;640.80;2406.40;;;;;;4890462;29;20131;-73
2023/06/05 11:20:09;;;;;;;7.55;4.05;;;665.60;2432.00;;;;;;4889985;29;20084;-75
2023/06/05 11:22:53;;;;;;;9.10;4.82;;;665.80;2380.80;;;;;;4883345;29;20187;-73
2023/06/05 11:25:24;;;;;;;9.45;4.03;;;666.20;2380.80;;;;;;4890275;29;20399;-75
2023/06/05 11:27:53;;;;;;;8.70;3.92;;;666.50;2124.80;;;;;;4888689;29;20044;-77
2023/06/05 11:30:21;;;;;;;8.60;4.05;;;691.40;2150.40;;;;;;4887627;29;20037;-72
2023/06/05 11:32:47;;;;;;;10.48;4.38;;;691.60;2073.60;;;;;;4889704;29;20029;-74
2023/06/05 11:35:14;;;;;;;12.80;5.80;;;;;;;;;;4887512;29;20037;-71
2023/06/05 11:37:40;;;;;;;6.32;4.05;;;691.90;2022.40;;;;;;4891313;29;20119;-72
2023/06/05 11:40:10;;;;;;;9.25;4.22;;;692.10;1920.00;;;;;;4885036;29;20116;-73
2023/06/05 11:42:38;;;;;;;7.40;4.20;;;692.10;2099.20;;;;;;4907833;29;20032;-77
2023/06/05 11:45:13;;;;;;;9.27;4.75;;;716.80;1920.00;;;;;;4925064;29;20032;-73
2023/06/05 11:47:39;;;;;;;7.95;4.68;;;716.90;1920.00;;;;;;4922939;29;20619;-77
2023/06/05 11:50:13;;;;;;;7.80;4.30;;;716.80;1894.40;;;;;;4927956;29;20390;-73
2023/06/05 11:52:39;;;;;;;7.15;4.85;;;717.00;1971.20;;;;;;4932632;29;20028;-73
2023/06/05 11:55:15;;;;;;;7.88;4.85;;;;;;;;;;4929331;29;20098;-75
2023/06/05 11:57:44;;;;;;;9.25;4.65;;;717.20;1920.00;;;;;;4928842;29;20079;-72
2023/06/05 12:00:14;;;;;;;7.10;4.75;;;717.20;1894.40;;;;;;4927843;29;20027;-73
2023/06/05 12:02:42;;;;;;;7.15;4.93;;;717.40;1894.40;;;;;;4923096;29;20036;-72
2023/06/05 12:05:09;;;;;;;7.00;4.65;;;717.40;1996.80;;;;;;4926343;29;20038;-74
2023/06/05 12:07:39;;;;;;;9.90;4.35;;;717.20;1920.00;;;;;;4932046;29;20047;-73
2023/06/05 12:10:07;;;;;;;9.07;4.28;;;717.00;1945.60;;;;;;4927236;29;20020;-73
2023/06/05 12:12:33;;;;;;;7.80;4.65;;;717.10;2048.00;;;;;;4935080;29;20023;-73
2023/06/05 12:15:20;;;;;;;8.65;4.03;;;716.90;1920.00;;;;;;4930640;29;20039;-73
2023/06/05 12:17:50;;;;;;;10.63;4.90;;;717.00;1920.00;;;;;;4926135;29;20111;-72
2023/06/05 12:20:17;;;;;;;8.52;4.13;;;717.10;1920.00;;;;;;4935283;29;20028;-74
2023/06/05 12:22:43;;;;;;;7.22;4.43;;;716.80;1894.40;;;;;;4930768;29;20047;-74
2023/06/05 12:25:19;;;;;;;10.93;4.10;;;716.80;1894.40;;;;;;4926265;29;20063;-73
2023/06/05 12:27:45;;;;;;;6.45;4.05;;;692.10;1945.60;;;;;;4927274;29;20123;-75
2023/06/05 12:30:12;;;;;;;6.25;4.10;;;692.00;1920.00;;;;;;4926382;29;20143;-73
2023/06/05 12:32:43;;;;;;;13.38;4.80;;;692.00;2048.00;;;;;;4922183;29;20036;-76
2023/06/05 12:35:19;;;;;;;9.23;4.78;;;716.80;1996.80;;;;;;4924543;29;20099;-75
2023/06/05 12:37:47;;;;;;;6.63;4.25;;;692.00;2022.40;;;;;;4928315;29;20111;-73
2023/06/05 12:40:14;;;;;;;6.75;4.43;;;691.90;1920.00;;;;;;4924591;29;20023;-72
2023/06/05 12:42:43;;;;;;;11.60;4.72;;;691.80;1920.00;;;;;;4924291;29;20024;-74